Decoded Metar for PKWA (KWAJALEIN in MARSHALL ISLANDS) (IATA:KWA) | Meteo·Mobile Aviation Weather
aviador You're here:

PKWA Decoded Metar

KWAJALEIN in MARSHALL ISLANDS
Report Time2019-07-21 16:40:00
UTC Time2019-07-21 16:52:43
Flight Rules vfr VFR
Wind120° at 03 kt
W.Decomp.*RWY 06: 1.9 kt HW 2.3 kt RCW
Visibility9999 m
Phenomena:N/A
Clouds:Scattered 018 Hf
Expected CloudBase > 1,200 ft AGL from Temp-Dew spread
CeilingNone
Temp28°C (ISA +13)
Dew Point25°C (84% RH)
Heat Index32.7°C
QNH1008 hPa
Density Alt2,113 ft
Elevation26 ft
Report Wrong Elevation
Raw Report
PKWA 211640Z AUTO 12003KT 10SM SCT018 28/25 A2977 RMK AO2
T02780245=

Extra information for PKWA:More info

Metar Taf Metar & Taf Last 4 Metars F.Rules Stats Wind Profile Meteogram Temp Stats Airport Information Weather charts Add Link Nearby VenuesMetar ALERT Operation Metar Decoded Social comments